createdAt,value
2023-01-20T00:01:23.669Z,26.58
2023-01-20T00:04:35.903Z,27.70
2023-01-20T00:07:47.829Z,27.38
2023-01-20T00:10:59.760Z,26.23
2023-01-20T00:14:13.098Z,25.13
2023-01-20T00:17:25.127Z,25.23
2023-01-20T00:20:37.167Z,26.38
2023-01-20T00:23:49.831Z,26.43
2023-01-20T00:27:01.793Z,27.65
2023-01-20T00:30:18.404Z,27.90
2023-01-20T00:33:30.496Z,27.25
2023-01-20T00:36:42.572Z,27.08
2023-01-20T00:39:54.523Z,28.23
2023-01-20T00:43:06.439Z,25.05
2023-01-20T00:46:19.653Z,27.35
2023-01-20T00:49:31.690Z,27.13
2023-01-20T00:52:43.591Z,26.98
2023-01-20T00:55:56.051Z,27.15
2023-01-20T00:59:08.665Z,25.83
2023-01-20T01:02:20.666Z,25.80
2023-01-20T01:05:32.921Z,25.93
2023-01-20T01:08:44.977Z,27.00
2023-01-20T01:11:57.393Z,28.28
2023-01-20T01:15:11.679Z,27.50
2023-01-20T01:18:24.155Z,26.33
2023-01-20T01:21:36.362Z,25.78
2023-01-20T01:24:50.919Z,24.78
2023-01-20T01:28:03.031Z,27.05
2023-01-20T01:31:16.479Z,27.60
2023-01-20T01:34:28.822Z,27.95
2023-01-20T01:37:40.933Z,26.68
2023-01-20T01:40:58.504Z,27.48
2023-01-20T01:44:14.178Z,26.90
2023-01-20T01:47:26.222Z,30.40
2023-01-20T01:50:45.734Z,29.53
2023-01-20T01:54:02.575Z,30.50
2023-01-20T01:57:15.406Z,27.25
2023-01-20T02:00:27.931Z,30.23
2023-01-20T02:03:46.682Z,30.25
2023-01-20T02:07:02.342Z,31.88
2023-01-20T02:10:17.265Z,30.38
2023-01-20T02:13:29.464Z,30.08
2023-01-20T02:16:52.010Z,30.25
2023-01-20T02:20:34.630Z,29.58
2023-01-20T02:24:36.605Z,31.75
2023-01-20T02:28:33.288Z,32.70
2023-01-20T02:32:31.662Z,29.68
2023-01-20T02:35:50.376Z,32.23
2023-01-20T02:39:07.540Z,31.55
2023-01-20T02:42:26.140Z,32.23
2023-01-20T02:45:45.231Z,32.70
2023-01-20T02:49:03.084Z,33.68
2023-01-20T02:52:21.528Z,33.28
2023-01-20T02:55:38.412Z,32.15
2023-01-20T02:58:55.016Z,33.10
2023-01-20T03:02:10.973Z,30.45
2023-01-20T03:05:28.533Z,34.07
2023-01-20T03:08:42.815Z,35.45
2023-01-20T03:12:01.090Z,32.90
2023-01-20T03:15:17.125Z,33.43
2023-01-20T03:18:30.538Z,34.40
2023-01-20T03:21:43.045Z,32.68
2023-01-20T03:24:56.533Z,34.10
2023-01-20T03:28:09.914Z,33.43
2023-01-20T03:31:26.848Z,33.00
2023-01-20T03:37:52.097Z,31.30
2023-01-20T03:41:09.904Z,32.63
2023-01-20T03:44:28.247Z,33.45
2023-01-20T03:47:52.778Z,35.85
2023-01-20T03:51:09.872Z,33.48
2023-01-20T03:54:26.593Z,31.35
2023-01-20T03:57:43.744Z,31.10
2023-01-20T04:00:58.326Z,32.40
2023-01-20T04:04:14.571Z,33.50
2023-01-20T04:07:30.885Z,35.43
2023-01-20T04:10:46.508Z,35.23
2023-01-20T04:13:59.790Z,32.13
2023-01-20T04:17:12.530Z,32.15
2023-01-20T04:20:25.351Z,32.35
2023-01-20T04:23:43.074Z,31.98
2023-01-20T04:26:55.104Z,33.03
2023-01-20T04:30:07.116Z,33.93
2023-01-20T04:33:18.975Z,33.65
2023-01-20T04:36:31.168Z,32.50
2023-01-20T04:39:43.282Z,30.30
2023-01-20T04:42:55.404Z,32.55
2023-01-20T04:49:07.422Z,33.70
2023-01-20T04:52:19.494Z,31.45
2023-01-20T04:55:33.081Z,31.85
2023-01-20T04:58:45.671Z,30.08
2023-01-20T05:01:59.951Z,29.38
2023-01-20T05:05:13.921Z,28.28
2023-01-20T05:08:26.364Z,28.10
2023-01-20T05:11:38.530Z,29.33
2023-01-20T05:14:50.775Z,27.08
2023-01-20T05:18:02.860Z,26.70
2023-01-20T05:21:15.328Z,26.35
2023-01-20T05:24:28.368Z,25.43
2023-01-20T05:27:42.646Z,25.85
2023-01-20T05:30:56.600Z,26.95
2023-01-20T05:34:09.240Z,25.65
2023-01-20T05:37:24.718Z,25.78
2023-01-20T05:40:36.919Z,23.35
2023-01-20T05:46:48.969Z,24.98
2023-01-20T05:56:08.861Z,23.80
2023-01-20T05:59:20.946Z,23.53
2023-01-20T06:02:36.019Z,24.98
2023-01-20T06:05:49.443Z,25.75
2023-01-20T06:09:01.711Z,34.90
2023-01-20T06:18:14.678Z,25.58
2023-01-20T06:21:27.084Z,24.73
2023-01-20T06:24:39.133Z,25.43
2023-01-20T06:27:51.087Z,24.98
2023-01-20T06:31:09.926Z,22.48
2023-01-20T06:34:22.400Z,24.10
2023-01-20T06:37:34.557Z,25.63
2023-01-20T06:40:46.532Z,27.25
2023-01-20T06:43:58.998Z,23.63
2023-01-20T06:47:11.394Z,41.65
2023-01-20T06:50:24.743Z,36.55
2023-01-20T06:53:36.935Z,27.53
2023-01-20T06:56:48.915Z,23.95
2023-01-20T07:00:00.772Z,23.85
2023-01-20T07:03:14.132Z,25.60
2023-01-20T07:06:38.355Z,23.58
2023-01-20T07:09:51.956Z,21.93
2023-01-20T07:13:04.011Z,23.68
2023-01-20T07:16:17.694Z,22.63
2023-01-20T07:19:30.098Z,21.53
2023-01-20T07:22:42.049Z,22.40
2023-01-20T07:25:56.870Z,23.30
2023-01-20T07:29:09.353Z,25.55
2023-01-20T07:32:21.451Z,25.25
2023-01-20T07:35:33.537Z,24.13
2023-01-20T07:38:45.916Z,23.75
2023-01-20T07:41:57.873Z,24.60
2023-01-20T07:45:12.425Z,22.73
2023-01-20T07:48:25.115Z,25.20
2023-01-20T07:51:37.536Z,25.30
2023-01-20T07:54:49.579Z,28.03
2023-01-20T07:58:02.376Z,42.90
2023-01-20T08:01:20.838Z,34.03
2023-01-20T08:04:33.020Z,25.43
2023-01-20T08:07:45.131Z,24.85
2023-01-20T08:11:02.461Z,25.55
2023-01-20T08:14:14.561Z,25.88
2023-01-20T08:17:27.087Z,26.45
2023-01-20T08:20:39.182Z,25.50
2023-01-20T08:23:51.270Z,25.85
2023-01-20T08:27:03.489Z,23.53
2023-01-20T08:30:19.871Z,24.85
2023-01-20T08:33:32.093Z,25.03
2023-01-20T08:36:46.345Z,26.80
2023-01-20T08:39:58.454Z,27.23
2023-01-20T08:43:10.868Z,26.30
2023-01-20T08:46:25.352Z,25.48
2023-01-20T08:49:38.467Z,40.38
2023-01-20T08:52:50.880Z,51.08
2023-01-20T08:56:08.113Z,33.73
2023-01-20T08:59:20.396Z,27.70
2023-01-20T09:02:32.685Z,29.58
2023-01-20T09:05:45.180Z,28.55
2023-01-20T09:08:58.200Z,27.33
2023-01-20T09:12:12.337Z,27.70
2023-01-20T09:15:25.639Z,29.68
2023-01-20T09:18:39.053Z,31.30
2023-01-20T09:21:51.726Z,32.80
2023-01-20T09:25:04.102Z,46.70
2023-01-20T09:28:16.705Z,34.78
2023-01-20T09:31:28.925Z,29.68
2023-01-20T09:34:41.652Z,30.15
2023-01-20T09:38:08.287Z,43.18
2023-01-20T09:41:44.482Z,38.28
2023-01-20T09:45:04.328Z,33.05
2023-01-20T09:48:38.304Z,32.53
2023-01-20T09:52:11.748Z,32.40
2023-01-20T09:55:31.224Z,33.43
2023-01-20T09:58:49.171Z,32.68
2023-01-20T10:02:05.983Z,32.70
2023-01-20T10:05:24.388Z,35.53
2023-01-20T10:08:55.803Z,34.73
2023-01-20T10:12:03.003Z,34.78
2023-01-20T10:15:19.860Z,49.93
2023-01-20T10:18:39.382Z,43.65
2023-01-20T10:21:56.496Z,50.18
2023-01-20T10:28:30.335Z,36.05
2023-01-20T10:31:47.303Z,37.95
2023-01-20T10:35:04.681Z,36.78
2023-01-20T10:38:24.132Z,39.33
2023-01-20T10:41:42.704Z,39.45
2023-01-20T10:44:57.256Z,38.73
2023-01-20T10:48:16.272Z,38.43
2023-01-20T10:51:34.922Z,39.58
2023-01-20T10:54:53.149Z,37.73
2023-01-20T10:58:12.313Z,38.48
2023-01-20T11:01:25.317Z,37.13
2023-01-20T11:04:38.526Z,36.00
2023-01-20T11:07:52.118Z,35.70
2023-01-20T11:11:09.835Z,34.03
2023-01-20T11:14:22.688Z,33.73
2023-01-20T11:17:34.915Z,40.15
2023-01-20T11:20:51.888Z,39.48
2023-01-20T11:27:21.567Z,37.88
2023-01-20T11:30:37.242Z,35.63
2023-01-20T11:34:05.462Z,35.35
2023-01-20T11:37:25.596Z,31.53
2023-01-20T11:40:38.310Z,29.68
2023-01-20T11:43:50.309Z,32.23
2023-01-20T11:47:05.998Z,33.18
2023-01-20T11:50:35.878Z,31.18
2023-01-20T11:53:48.358Z,33.65
2023-01-20T11:57:05.182Z,32.90
2023-01-20T12:00:38.516Z,32.55
2023-01-20T12:04:36.750Z,37.85
2023-01-20T12:07:52.839Z,32.40
2023-01-20T12:11:09.299Z,38.18
2023-01-20T12:14:28.877Z,35.55
2023-01-20T12:17:56.148Z,33.90
2023-01-20T12:21:15.867Z,35.25
2023-01-20T12:24:42.807Z,33.28
2023-01-20T12:27:58.166Z,33.55
2023-01-20T12:31:12.560Z,34.48
2023-01-20T12:34:28.705Z,35.00
2023-01-20T12:37:48.927Z,38.73
2023-01-20T12:41:04.539Z,35.95
2023-01-20T12:44:24.132Z,34.38
2023-01-20T12:47:49.076Z,33.35
2023-01-20T12:51:19.237Z,34.75
2023-01-20T12:55:12.706Z,33.65
2023-01-20T12:58:35.867Z,34.00
2023-01-20T13:02:08.256Z,37.53
2023-01-20T13:05:51.182Z,37.45
2023-01-20T13:09:12.146Z,36.15
2023-01-20T13:12:45.806Z,31.43
2023-01-20T13:16:04.469Z,33.03
2023-01-20T13:19:22.519Z,29.10
2023-01-20T13:22:35.856Z,31.60
2023-01-20T13:25:49.502Z,36.18
2023-01-20T13:29:03.522Z,31.00
2023-01-20T13:32:42.084Z,29.53
2023-01-20T13:35:56.325Z,31.48
2023-01-20T13:39:47.298Z,29.90
2023-01-20T13:42:59.642Z,29.75
2023-01-20T13:46:52.513Z,29.80
2023-01-20T13:50:08.647Z,29.90
2023-01-20T13:53:34.131Z,31.73
2023-01-20T13:56:55.117Z,31.23
2023-01-20T14:00:07.398Z,29.58
2023-01-20T14:03:35.282Z,34.65
2023-01-20T14:06:52.950Z,28.40
2023-01-20T14:10:07.303Z,30.68
2023-01-20T14:13:25.199Z,29.63
2023-01-20T14:16:44.330Z,28.50
2023-01-20T14:19:59.134Z,28.08
2023-01-20T14:23:46.055Z,26.43
2023-01-20T14:27:12.809Z,29.53
2023-01-20T14:30:31.154Z,29.90
2023-01-20T14:33:51.357Z,30.00
2023-01-20T14:37:07.229Z,28.08
2023-01-20T14:40:30.990Z,26.65
2023-01-20T14:43:43.425Z,29.53
2023-01-20T14:46:58.343Z,30.10
2023-01-20T14:50:15.095Z,29.93
2023-01-20T14:56:37.732Z,28.73
2023-01-20T14:59:50.370Z,29.90
2023-01-20T15:03:11.886Z,31.23
2023-01-20T15:06:28.302Z,32.10
2023-01-20T15:09:45.615Z,29.87
2023-01-20T15:13:02.520Z,30.75
2023-01-20T15:16:26.417Z,32.35
2023-01-20T15:19:40.602Z,33.58
2023-01-20T15:22:52.912Z,33.28
2023-01-20T15:26:16.603Z,31.15
2023-01-20T15:29:31.185Z,30.08
2023-01-20T15:32:43.196Z,30.43
2023-01-20T15:36:02.713Z,32.03
2023-01-20T15:39:21.041Z,26.80
2023-01-20T15:42:33.313Z,25.23
2023-01-20T15:45:45.535Z,25.98
2023-01-20T15:48:57.825Z,27.18
2023-01-20T15:52:13.124Z,24.93
2023-01-20T15:55:26.461Z,23.23
2023-01-20T15:58:40.855Z,24.25
2023-01-20T16:01:53.089Z,22.50
2023-01-20T16:05:06.172Z,20.55
2023-01-20T16:08:25.705Z,21.53
2023-01-20T16:11:38.062Z,22.30
2023-01-20T16:14:50.858Z,20.78
2023-01-20T16:18:03.185Z,23.02
2023-01-20T16:21:18.086Z,23.43
2023-01-20T16:24:30.489Z,21.15
2023-01-20T16:27:42.974Z,22.28
2023-01-20T16:30:57.814Z,21.53
2023-01-20T16:34:10.151Z,21.50
2023-01-20T16:37:22.660Z,20.15
2023-01-20T16:40:36.426Z,20.15
2023-01-20T16:43:49.515Z,18.63
2023-01-20T16:47:01.862Z,18.48
2023-01-20T16:50:18.610Z,18.60
2023-01-20T16:53:31.073Z,17.08
2023-01-20T16:56:45.447Z,17.73
2023-01-20T16:59:57.519Z,17.40
2023-01-20T17:03:09.955Z,17.60
2023-01-20T17:06:25.145Z,19.18
2023-01-20T17:09:37.743Z,20.98
2023-01-20T17:12:50.348Z,20.30
2023-01-20T17:16:03.434Z,18.90
2023-01-20T17:19:17.688Z,17.93
2023-01-20T17:22:30.051Z,16.85
2023-01-20T17:25:42.257Z,17.60
2023-01-20T17:28:57.020Z,18.20
2023-01-20T17:32:09.739Z,17.25
2023-01-20T17:35:22.974Z,15.15
2023-01-20T17:38:36.775Z,16.30
2023-01-20T17:41:49.019Z,15.48
2023-01-20T17:45:03.283Z,17.83
2023-01-20T18:11:24.689Z,16.65
2023-01-20T18:37:25.325Z,15.45
2023-01-20T18:40:46.169Z,15.35
2023-01-20T18:43:58.724Z,16.20
2023-01-20T18:47:10.934Z,15.95
2023-01-20T18:54:10.459Z,15.65
2023-01-20T18:57:22.538Z,15.60
2023-01-20T19:00:34.738Z,15.58
2023-01-20T19:03:55.876Z,14.58
2023-01-20T19:07:16.453Z,14.53
2023-01-20T19:14:22.120Z,14.23
2023-01-20T19:21:18.742Z,16.30
2023-01-20T19:28:13.333Z,21.48
2023-01-20T19:31:26.436Z,13.15
2023-01-20T19:34:39.395Z,13.05
2023-01-20T19:37:51.563Z,12.43
2023-01-20T19:41:09.803Z,12.70
2023-01-20T19:44:22.603Z,10.93
2023-01-20T19:47:35.453Z,10.10
2023-01-20T19:50:47.674Z,11.48
2023-01-20T19:54:02.638Z,11.60
2023-01-20T19:57:14.864Z,12.50
2023-01-20T20:00:28.204Z,12.35
2023-01-20T20:03:40.717Z,11.53
2023-01-20T20:06:53.016Z,11.15
2023-01-20T20:10:07.683Z,11.68
2023-01-20T20:24:24.628Z,10.48
2023-01-20T20:31:17.924Z,23.50
2023-01-20T20:34:38.515Z,10.95
2023-01-20T20:38:02.029Z,10.05
2023-01-20T20:48:38.689Z,12.65
2023-01-20T20:51:58.933Z,13.45
2023-01-20T20:55:12.864Z,12.23
2023-01-20T20:58:24.941Z,11.18
2023-01-20T21:01:39.628Z,11.63
2023-01-20T21:04:51.815Z,13.08
2023-01-20T21:08:04.768Z,13.93
2023-01-20T21:11:20.545Z,14.60
2023-01-20T21:14:32.973Z,13.03
2023-01-20T21:17:45.310Z,11.48
2023-01-20T21:21:05.543Z,11.05
2023-01-20T21:24:18.129Z,12.63
2023-01-20T21:27:30.527Z,11.48
2023-01-20T21:30:43.718Z,11.48
2023-01-20T21:34:01.369Z,11.93
2023-01-20T21:40:17.441Z,12.60
2023-01-20T21:43:44.855Z,11.30
2023-01-20T21:46:57.209Z,12.48
2023-01-20T21:50:25.354Z,10.75
2023-01-20T21:53:37.440Z,12.50
2023-01-20T21:56:49.770Z,12.60
2023-01-20T22:00:01.807Z,12.40
2023-01-20T22:03:15.918Z,12.25
2023-01-20T22:06:27.955Z,12.13
2023-01-20T22:09:40.249Z,11.70
2023-01-20T22:12:52.585Z,11.60
2023-01-20T22:16:07.314Z,10.73
2023-01-20T22:19:21.208Z,10.65
2023-01-20T22:22:33.345Z,9.23
2023-01-20T22:25:45.659Z,8.83
2023-01-20T22:28:57.934Z,9.13
2023-01-20T22:32:10.750Z,8.83
2023-01-20T22:35:23.426Z,8.83
2023-01-20T22:38:35.717Z,8.75
2023-01-20T22:41:48.260Z,8.35
2023-01-20T22:45:00.640Z,8.48
2023-01-20T22:48:13.873Z,8.33
2023-01-20T22:51:28.910Z,8.50
2023-01-20T22:54:41.515Z,8.33
2023-01-20T22:57:54.043Z,7.70
2023-01-20T23:01:07.567Z,7.80
2023-01-20T23:04:19.951Z,7.40
2023-01-20T23:07:32.443Z,8.18
2023-01-20T23:10:50.794Z,7.15
2023-01-20T23:14:03.099Z,7.78
2023-01-20T23:17:15.166Z,8.45
2023-01-20T23:20:27.590Z,8.33
2023-01-20T23:23:40.700Z,7.55
2023-01-20T23:26:53.406Z,8.68
2023-01-20T23:30:05.869Z,8.68
2023-01-20T23:33:19.001Z,7.73
2023-01-20T23:36:32.504Z,7.85
2023-01-20T23:39:44.540Z,8.40
2023-01-20T23:42:56.653Z,8.10
2023-01-20T23:46:11.452Z,9.48
2023-01-20T23:49:23.831Z,7.80
2023-01-20T23:52:35.915Z,7.85
2023-01-20T23:55:47.852Z,8.35
2023-01-20T23:59:00.128Z,8.60
